Pablo Russo

Olheiro - Independiente
13 Fev 2028
Domingo
Processo

Personalidade

Adaptabilidade (7) Ambição (3) Controvérsia (8) Lealdade (18) Pressão (10) Profissionalismo (19) Espírito Esportivo (3) Temperamento (8)

Perfil

Estilo de Treinamento Democrático
Licença Continental Pro
Determinação 15
Gestão de Pessoas 14
Motivação 8
Disciplina 14
Satisfação no Trabalho
100%
Fadiga
0%
Função Olheiro
Salário 51.4K p/s
Contrato 14.03.2030

Desempenho

Comportamento Bom
Eficácia do Treinamento
43%
Desenvolvimento do Jogador
25%
Prevenção de Lesões
60%
Implementação Tática
55%

Eventos Recentes

Participou de uma reunião de recrutamento 14d atrás
Participando de desenvolvimento profissional 21d atrás
Participou de uma reunião de recrutamento 21d atrás
Participando de desenvolvimento profissional 21d atrás
Participando de desenvolvimento profissional 21d atrás
Participando de desenvolvimento profissional 21d atrás
Participando de desenvolvimento profissional 28d atrás
Participando de desenvolvimento profissional 28d atrás

Monitorando agora

109
Jogador Clube Status Habilidade Confiança Observado Última observação Último voto
Oussama Idrissi AIK Ativo 142 / 141 40% 1 30.11.2027 -
Ben Gannon Doak Charlton Athletic Ativo 149 / 145 40% 1 30.11.2027 -
Esequiel Barco Spartak Moscow Ativo 137 / 137 40% 1 30.11.2027 -
Kenan Yıldız Juventus Ativo 165 / 165 40% 1 31.05.2027 -
Matteo Lovato Padova Ativo 124 / 129 40% 1 30.05.2027 -
Enrico Delprato Parma Ativo 148 / 145 40% 2 21.05.2027 -
Mattia Viti Sampdoria Ativo 128 / 141 40% 2 21.05.2027 -
Curtis Jones Inter Ativo 163 / 153 40% 3 20.05.2027 -
Sebastiano Luperto Cremonese Ativo 142 / 136 40% 2 20.05.2027 -
Florian Grillitsch Frosinone Ativo 135 / 129 40% 1 20.05.2027 -
Danilo Veiga Lecce Ativo 119 / 124 40% 1 17.05.2027 -
Pierre Kalulu Juventus Ativo 155 / 146 40% 2 14.05.2027 -
Nadir Zortea Bologna Ativo 143 / 130 40% 3 14.05.2027 -
Khéphren Thuram Juventus Ativo 156 / 159 40% 2 14.05.2027 -
Thierry Rendall Correia Venezia Ativo 150 / 151 40% 5 12.05.2027 -
Rolando Mandragora Torino Ativo 142 / 146 40% 1 12.05.2027 -
Mitchel Bakker Modena Ativo 127 / 139 40% 2 10.05.2027 -
Pervis Estupiñán AC Milan Ativo 154 / 139 40% 2 08.05.2027 -
Nicolò Rovella Lazio Ativo 150 / 162 40% 2 08.05.2027 -
Evan N'Dicka AS Roma Ativo 157 / 146 40% 1 08.05.2027 -
André-Franck Zambo Anguissa Napoli Ativo 161 / 170 40% 6 06.05.2027 -
Manu Koné AS Roma Ativo 175 / 166 40% 1 06.05.2027 -
Nuno Tavares Lazio Ativo 137 / 141 40% 3 02.05.2027 -
Jesper Karlström Udinese Ativo 140 / 134 40% 1 30.04.2027 -
Raoul Bellanova Atalanta Ativo 158 / 145 40% 1 30.04.2027 -
Lewis Ferguson Bologna Ativo 143 / 134 40% 4 29.04.2027 -
Andrea Carboni Monza Ativo 126 / 138 40% 1 22.04.2027 -
Jordan Zemura Udinese Ativo 130 / 140 40% 2 16.04.2027 -
Diego Gómez Brighton Ativo 147 / 151 40% 1 12.04.2027 -
João Cancelo Spartak Moscow Ativo 147 / 148 40% 1 10.04.2027 -
Teun Koopmeiners Juventus Ativo 153 / 140 40% 1 10.04.2027 -
Ferland Mendy Real Madrid Ativo 150 / 138 40% 4 08.04.2027 -
Giuseppe Pezzella Cremonese Ativo 122 / 120 40% 1 29.03.2027 -
Hidemasa Morita Hull City Ativo 137 / 142 40% 2 26.03.2027 -
Jarrad Branthwaite Everton Ativo 160 / 156 40% 1 26.03.2027 -
Juanlu Bournemouth Ativo 138 / 159 40% 1 26.03.2027 -
Alex Scott Bournemouth Ativo 147 / 152 40% 1 24.03.2027 -
Amadou Onana Aston Villa Ativo 150 / 148 40% 1 22.03.2027 -
Kyle Walker-Peters West Ham United Ativo 148 / 135 40% 1 22.03.2027 -
Adrien Truffert Bournemouth Ativo 143 / 139 40% 1 21.03.2027 -
Aaron Hickey Brentford Ativo 151 / 153 40% 1 21.03.2027 -
Milan van Ewijk Coventry City Ativo 124 / 132 40% 2 17.03.2027 -
Josh Coburn Millwall Ativo 106 / 107 40% 1 14.12.2026 -
Rhian Brewster Oleksandriya Ativo 113 / 128 40% 1 14.12.2026 -
Aidan Morris Middlesbrough Ativo 134 / 120 40% 2 30.11.2026 -
Oliver Skipp Leicester City Ativo 122 / 138 40% 1 30.11.2026 -
Jens Petter Hauge Bodo/Glimt Ativo 133 / 149 40% 1 26.11.2026 -
Dejan Zukić Vojvodina Ativo 130 / 129 40% 1 26.11.2026 -
Ethan Galbraith Swansea City Ativo 126 / 127 40% 1 26.11.2026 -
Bongani Zungu Ajax Cape Town Ativo 118 / 113 40% 2 25.11.2026 -
Bobby Clark Derby County Ativo 129 / 120 40% 1 25.11.2026 -
Edoardo Bove Watford Ativo 135 / 119 40% 1 25.11.2026 -
Luis Chávez Dinamo Moscow Ativo 128 / 122 40% 1 24.11.2026 -
Teboho Mokoena Mamelodi Sundowns Ativo 138 / 138 40% 3 22.11.2026 -
Luke McNally Bristol City Ativo 129 / 119 40% 1 16.11.2026 -
Manu Morlanes Mallorca Ativo 141 / 125 40% 2 15.11.2026 -
Kenny Tete Fulham Ativo 154 / 138 40% 3 15.11.2026 -
Ben Sheaf Wrexham Ativo 135 / 135 40% 1 14.11.2026 -
Milan Škriniar Fenerbahce Ativo 162 / 162 40% 2 13.11.2026 -
Juan Bisanz Huracán Ativo 128 / 135 40% 4 12.11.2026 -
Tyrese Campbell Sheffield United Ativo 132 / 113 40% 2 09.11.2026 -
Kevin Zenón Boca Juniors Ativo 133 / 123 40% 1 09.11.2026 -
Oswin Appollis Orlando Pirates Ativo 123 / 128 40% 1 09.11.2026 -
Ali Ahmed Norwich City Ativo 120 / 118 40% 1 08.11.2026 -
Fer López Wolverhampton Ativo 136 / 139 40% 1 08.11.2026 -
Alex Luna Instituto Ativo 137 / 131 40% 3 07.11.2026 -
Harry Clarke Preston Ativo 138 / 136 40% 1 07.11.2026 -
Adu Ares Eibar Ativo 121 / 132 40% 1 07.11.2026 -
Juan Cruz de los Santos Nacional Ativo 124 / 125 40% 1 05.11.2026 -
Sorba Thomas Stoke City Ativo 137 / 123 40% 1 05.11.2026 -
Reda Khadra Qarabag Ativo 126 / 132 40% 2 01.11.2026 -
Sota Kitano Red Bull Salzburg Ativo 132 / 132 40% 2 01.11.2026 -
Dara O'Shea Ipswich Town Ativo 143 / 134 40% 1 28.10.2026 -
Ismaël Bennacer Boca Juniors Ativo 147 / 151 40% 1 28.10.2026 -
Emanuel Mammana Vélez Ativo 126 / 131 40% 1 27.10.2026 -
Joe Gelhardt Hull City Ativo 131 / 138 40% 1 25.10.2026 -
Yunus Akgün Galatasaray Ativo 133 / 141 40% 1 25.10.2026 -
Shea Charles Southampton Ativo 125 / 129 40% 1 18.10.2026 -
Ander Guevara Racing Genk Ativo 134 / 143 40% 2 17.10.2026 -
Matt Miazga FC Cincinnati Ativo 135 / 133 40% 1 17.10.2026 -
Eduard Löwen San Jose Earthquakes Ativo 125 / 134 40% 1 17.10.2026 -
Anel Ahmedhodžić Burnley Ativo 145 / 124 40% 1 16.10.2026 -
Facundo Mura Inter Miami CF Ativo 126 / 121 40% 1 15.10.2026 -
Bénie Traoré New York City Ativo 118 / 124 40% 1 13.10.2026 -
Alejandro Pozo Standard Liege Ativo 115 / 126 40% 1 11.10.2026 -
André Luiz Sporting Kansas City Ativo 122 / 128 40% 1 11.10.2026 -
Tiago Palacios Estudiantes Ativo 128 / 125 40% 1 11.10.2026 -
Edu Expósito Espanyol Ativo 140 / 143 40% 3 08.10.2026 -
Mattéo Guendouzi Fenerbahce Ativo 142 / 145 40% 1 08.10.2026 -
Víctor Guzmán Monterrey Ativo 132 / 128 40% 1 07.10.2026 -
Gerardo Arteaga Monterrey Ativo 135 / 129 40% 2 05.10.2026 -
Bryan González Guadalajara Ativo 134 / 126 40% 2 04.10.2026 -
Alexis Gutiérrez Club America Ativo 121 / 120 40% 1 04.10.2026 -
Shota Fukuoka Gamba Osaka Ativo 135 / 126 40% 1 29.09.2026 -
Jesús Orozco Chiquete Cruz Azul Ativo 134 / 130 40% 1 28.09.2026 -
Lukáš Červ Viktoria Plzen Ativo 129 / 121 40% 1 28.09.2026 -
Alexander Aravena Portland Timbers Ativo 124 / 128 40% 1 27.09.2026 -
Willer Ditta Cruz Azul Ativo 139 / 137 40% 3 22.09.2026 -
Jesús Angulo Tigres Ativo 135 / 135 40% 2 19.09.2026 -
Rodrigo Echeverría Leon Ativo 125 / 123 40% 1 19.09.2026 -
Richard Ledezma Guadalajara Ativo 135 / 139 40% 1 16.09.2026 -
Jorge Sánchez Atlas Ativo 125 / 133 40% 1 16.09.2026 -
Rico Henry River Plate Ativo 148 / 138 40% 1 16.09.2026 -
Jeremy Márquez Cruz Azul Ativo 125 / 118 40% 1 13.09.2026 -
César Araújo Tigres Ativo 126 / 125 40% 1 13.09.2026 -
Alexandr Chernikov Krasnodar Ativo 128 / 121 40% 1 10.09.2026 -
Luis Romo Guadalajara Ativo 138 / 141 40% 1 07.08.2026 -
Timothy Fellaini KV Oostende Ativo 134 / 120 40% 1 07.08.2026 -
Gedson Fernandes Spartak Moscow Ativo 125 / 130 40% 1 07.08.2026 -